Time;durP1;ratioP1;P1;durP2;ratioP2;P2;SDS_P1;SDS_P2;PMS_P1;PMS_P2;Temp;Humidity;BMP_temperature;BMP_pressure;BME280_temperature;BME280_humidity;BME280_pressure;Samples;Min_cycle;Max_cycle;Signal;HPM_P1;HPM_P2
2023/01/20 00:01:45;;;;;;;21.33;12.82;;;;;;;;;;5060791;28;20486;-75
2023/01/20 00:04:11;;;;;;;21.30;14.52;;;;;;;;;;5045984;28;20487;-76
2023/01/20 00:06:37;;;;;;;16.30;12.23;;;;;;;;;;5049426;28;20497;-75
2023/01/20 00:09:04;;;;;;;22.40;13.82;;;;;;;;;;5048649;28;20237;-76
2023/01/20 00:11:33;;;;;;;22.10;13.63;;;;;;;;;;5070059;28;20285;-75
2023/01/20 00:14:00;;;;;;;27.15;15.15;;;;;;;;;;5045322;28;20203;-75
2023/01/20 00:16:26;;;;;;;20.63;14.93;;;;;;;;;;5055751;28;20279;-75
2023/01/20 00:18:52;;;;;;;20.52;13.80;;;;;;;;;;5046103;28;20931;-75
2023/01/20 00:21:20;;;;;;;9.88;6.55;;;;;;;;;;5052987;28;20187;-76
2023/01/20 00:23:47;;;;;;;20.70;13.85;;;;;;;;;;5064538;28;20540;-76
2023/01/20 00:26:15;;;;;;;23.10;14.50;;;;;;;;;;5049665;28;20254;-76
2023/01/20 00:28:41;;;;;;;20.47;12.00;;;;;;;;;;5054488;28;20839;-75
2023/01/20 00:31:14;;;;;;;18.00;12.97;;;;;;;;;;5061191;28;20437;-75
2023/01/20 00:33:40;;;;;;;21.73;13.37;;;;;;;;;;5064637;28;20406;-76
2023/01/20 00:36:07;;;;;;;20.27;11.20;;;;;;;;;;5051725;28;20918;-76
2023/01/20 00:38:33;;;;;;;19.50;13.85;;;;;;;;;;5029116;28;20430;-75
2023/01/20 00:41:02;;;;;;;25.75;13.90;;;;;;;;;;5032040;28;20334;-75
2023/01/20 00:43:28;;;;;;;28.30;16.15;;;;;;;;;;5061690;28;20236;-76
2023/01/20 00:45:57;;;;;;;22.20;13.32;;;;;;;;;;5052636;28;20215;-75
2023/01/20 00:48:23;;;;;;;17.97;13.00;;;;;;;;;;5053296;28;20204;-75
2023/01/20 00:50:49;;;;;;;20.42;14.82;;;;;;;;;;5052846;28;20413;-76
2023/01/20 00:53:15;;;;;;;30.00;16.17;;;;;;;;;;5061836;28;20183;-75
2023/01/20 00:55:41;;;;;;;26.93;18.03;;;;;;;;;;5055512;28;20646;-75
2023/01/20 00:58:07;;;;;;;30.43;14.50;;;;;;;;;;5045263;28;21023;-75
2023/01/20 01:00:33;;;;;;;26.10;16.93;;;;;;;;;;5047362;28;20406;-75
2023/01/20 01:02:59;;;;;;;28.63;17.60;;;;;;;;;;5062927;28;20433;-75
2023/01/20 01:05:25;;;;;;;27.13;15.32;;;;;;;;;;5067072;28;20844;-75
2023/01/20 01:07:51;;;;;;;23.40;11.77;;;;;;;;;;5047698;28;20284;-76
2023/01/20 01:10:17;;;;;;;23.80;14.70;;;;;;;;;;5062910;28;20925;-75
2023/01/20 01:12:43;;;;;;;36.63;18.75;;;;;;;;;;5044276;28;20477;-75
2023/01/20 01:15:09;;;;;;;28.97;16.90;;;;;;;;;;5046854;28;20289;-75
2023/01/20 01:17:35;;;;;;;28.02;17.05;;;;;;;;;;5055789;28;20427;-75
2023/01/20 01:20:01;;;;;;;19.02;13.10;;;;;;;;;;5047019;28;20635;-75
2023/01/20 01:22:27;;;;;;;29.30;17.90;;;;;;;;;;5064001;28;20186;-75
2023/01/20 01:24:53;;;;;;;27.80;15.70;;;;;;;;;;5045039;28;20445;-75
2023/01/20 01:27:19;;;;;;;34.75;19.27;;;;;;;;;;5046534;28;20238;-74
2023/01/20 01:29:45;;;;;;;34.10;18.07;;;;;;;;;;5062417;28;20428;-74
2023/01/20 01:32:11;;;;;;;31.70;17.07;;;;;;;;;;5052115;28;20429;-75
2023/01/20 01:34:37;;;;;;;40.50;19.10;;;;;;;;;;5046238;28;20449;-75
2023/01/20 01:37:03;;;;;;;31.93;17.50;;;;;;;;;;5065455;28;20420;-75
2023/01/20 01:39:29;;;;;;;35.33;18.10;;;;;;;;;;5046279;28;20587;-76
2023/01/20 01:41:55;;;;;;;31.95;17.90;;;;;;;;;;5054333;28;20433;-76
2023/01/20 01:44:21;;;;;;;37.97;20.77;;;;;;;;;;5051511;28;20202;-75
2023/01/20 01:46:47;;;;;;;30.07;15.50;;;;;;;;;;5057601;28;20210;-75
2023/01/20 01:49:17;;;;;;;36.72;18.40;;;;;;;;;;5057477;28;20918;-75
2023/01/20 01:51:57;;;;;;;32.90;18.55;;;;;;;;;;5057311;28;20225;-75
2023/01/20 01:54:25;;;;;;;31.05;18.42;;;;;;;;;;5055608;28;20559;-76
2023/01/20 01:56:51;;;;;;;27.48;17.15;;;;;;;;;;5056580;28;20385;-75
2023/01/20 01:59:18;;;;;;;34.60;19.02;;;;;;;;;;5046945;28;20276;-75
2023/01/20 02:01:49;;;;;;;30.58;17.00;;;;;;;;;;5053961;28;20626;-75
2023/01/20 02:04:16;;;;;;;32.08;17.77;;;;;;;;;;5042792;28;20223;-75
2023/01/20 02:06:44;;;;;;;24.15;15.32;;;;;;;;;;5076119;28;20225;-75
2023/01/20 02:09:11;;;;;;;25.42;12.98;;;;;;;;;;5046810;28;20191;-75
2023/01/20 02:11:39;;;;;;;39.83;20.27;;;;;;;;;;5056753;28;20223;-76
2023/01/20 02:14:05;;;;;;;28.73;17.02;;;;;;;;;;5053811;28;20186;-75
2023/01/20 02:16:37;;;;;;;24.13;12.25;;;;;;;;;;5049512;28;20213;-75
2023/01/20 02:19:24;;;;;;;35.90;20.83;;;;;;;;;;5047989;28;20264;-76
2023/01/20 02:22:20;;;;;;;24.80;16.65;;;;;;;;;;5055801;28;20194;-77
2023/01/20 02:24:49;;;;;;;32.40;16.95;;;;;;;;;;5032844;28;20208;-76
2023/01/20 02:27:22;;;;;;;38.65;19.38;;;;;;;;;;5057279;28;20645;-75
2023/01/20 02:30:03;;;;;;;35.00;18.87;;;;;;;;;;5051450;28;20734;-75
2023/01/20 02:32:29;;;;;;;37.22;19.85;;;;;;;;;;5049497;28;20707;-74
2023/01/20 02:34:57;;;;;;;37.00;17.42;;;;;;;;;;5047490;28;20253;-76
2023/01/20 02:37:27;;;;;;;25.70;14.80;;;;;;;;;;5052553;28;20662;-76
2023/01/20 02:40:01;;;;;;;35.28;17.88;;;;;;;;;;5061463;28;20194;-74
2023/01/20 02:42:45;;;;;;;17.42;11.82;;;;;;;;;;5058626;28;20175;-76
2023/01/20 02:45:16;;;;;;;30.70;17.02;;;;;;;;;;5057831;28;20263;-75
2023/01/20 02:48:05;;;;;;;30.70;17.65;;;;;;;;;;5059986;28;20181;-75
2023/01/20 02:50:36;;;;;;;32.42;17.73;;;;;;;;;;5045139;28;20191;-75
2023/01/20 02:53:03;;;;;;;30.42;16.50;;;;;;;;;;5052953;28;20534;-74
2023/01/20 02:55:38;;;;;;;42.45;22.00;;;;;;;;;;5050749;28;20590;-75
2023/01/20 02:58:06;;;;;;;32.88;20.08;;;;;;;;;;5049642;28;20208;-74
2023/01/20 03:00:36;;;;;;;33.35;18.58;;;;;;;;;;5065425;28;20171;-75
2023/01/20 03:03:06;;;;;;;35.05;21.17;;;;;;;;;;5041422;28;20214;-75
2023/01/20 03:05:34;;;;;;;34.95;19.08;;;;;;;;;;5045365;28;20211;-75
2023/01/20 03:08:02;;;;;;;34.38;21.17;;;;;;;;;;5044897;28;20378;-74
2023/01/20 03:10:30;;;;;;;31.38;18.75;;;;;;;;;;5082892;28;20231;-75
2023/01/20 03:12:58;;;;;;;40.85;20.60;;;;;;;;;;5061888;28;20195;-75
2023/01/20 03:15:30;;;;;;;38.20;19.60;;;;;;;;;;5065216;28;20170;-76
2023/01/20 03:17:57;;;;;;;33.22;20.35;;;;;;;;;;5042222;28;20622;-75
2023/01/20 03:20:23;;;;;;;32.95;19.38;;;;;;;;;;5064631;28;20186;-75
2023/01/20 03:22:49;;;;;;;28.15;16.92;;;;;;;;;;5043436;28;21111;-75
2023/01/20 03:25:16;;;;;;;23.55;14.50;;;;;;;;;;5064068;28;20285;-76
2023/01/20 03:27:42;;;;;;;26.00;15.73;;;;;;;;;;5058744;28;20183;-75
2023/01/20 03:30:15;;;;;;;40.88;19.25;;;;;;;;;;5056669;28;20194;-74
2023/01/20 03:32:43;;;;;;;29.63;16.35;;;;;;;;;;5057503;28;20243;-74
2023/01/20 03:35:09;;;;;;;35.15;17.90;;;;;;;;;;5065299;28;20219;-75
2023/01/20 03:37:35;;;;;;;30.73;15.95;;;;;;;;;;5052824;28;20270;-74
2023/01/20 03:40:01;;;;;;;32.50;18.23;;;;;;;;;;5045632;28;20258;-75
2023/01/20 03:42:33;;;;;;;36.33;15.20;;;;;;;;;;5042960;28;20478;-74
2023/01/20 03:44:59;;;;;;;34.75;17.27;;;;;;;;;;5053786;28;20179;-74
2023/01/20 03:47:31;;;;;;;30.83;14.70;;;;;;;;;;5062914;28;20187;-75
2023/01/20 03:50:17;;;;;;;31.20;16.52;;;;;;;;;;5054815;28;20179;-74
2023/01/20 03:52:48;;;;;;;29.98;16.65;;;;;;;;;;5052761;28;20183;-75
2023/01/20 03:55:20;;;;;;;38.17;18.50;;;;;;;;;;5045692;28;20827;-75
2023/01/20 03:57:53;;;;;;;28.73;17.20;;;;;;;;;;5052041;28;20206;-76
2023/01/20 04:00:20;;;;;;;28.35;14.68;;;;;;;;;;5054473;28;20183;-75
2023/01/20 04:02:46;;;;;;;28.17;17.35;;;;;;;;;;5055271;28;20425;-75
2023/01/20 04:05:13;;;;;;;24.57;15.17;;;;;;;;;;5042464;28;20183;-76
2023/01/20 04:07:39;;;;;;;25.17;15.45;;;;;;;;;;5045801;28;20907;-74
2023/01/20 04:10:09;;;;;;;14.35;7.72;;;;;;;;;;5049071;28;20562;-74
2023/01/20 04:12:35;;;;;;;23.45;10.80;;;;;;;;;;5058808;28;20214;-74
2023/01/20 04:15:06;;;;;;;18.85;9.40;;;;;;;;;;5053553;28;20179;-75
2023/01/20 04:17:32;;;;;;;25.17;13.48;;;;;;;;;;5052957;28;20194;-75
2023/01/20 04:20:00;;;;;;;22.20;12.32;;;;;;;;;;5065949;28;20529;-75
2023/01/20 04:22:26;;;;;;;22.25;13.00;;;;;;;;;;5064518;28;20187;-74
2023/01/20 04:24:55;;;;;;;26.23;13.57;;;;;;;;;;5053210;28;20195;-77
2023/01/20 04:27:21;;;;;;;25.67;14.43;;;;;;;;;;5048992;28;20270;-76
2023/01/20 04:29:47;;;;;;;20.00;12.70;;;;;;;;;;5047078;28;20361;-78
2023/01/20 04:32:13;;;;;;;31.97;15.43;;;;;;;;;;5059721;28;20420;-77
2023/01/20 04:34:39;;;;;;;29.93;15.00;;;;;;;;;;5046585;28;20534;-76
2023/01/20 04:37:05;;;;;;;28.20;15.83;;;;;;;;;;5049653;28;20798;-74
2023/01/20 04:39:31;;;;;;;23.60;13.90;;;;;;;;;;5053246;28;20687;-75
2023/01/20 04:41:57;;;;;;;21.70;12.68;;;;;;;;;;5051940;28;20895;-75
2023/01/20 04:44:23;;;;;;;18.35;10.57;;;;;;;;;;5052755;28;20225;-76
2023/01/20 04:46:49;;;;;;;21.90;12.38;;;;;;;;;;5038193;28;20260;-76
2023/01/20 04:49:15;;;;;;;20.50;12.90;;;;;;;;;;5054016;28;20747;-75
2023/01/20 04:51:41;;;;;;;25.57;11.47;;;;;;;;;;5057093;28;20201;-75
2023/01/20 04:54:08;;;;;;;25.48;13.70;;;;;;;;;;5055964;28;20615;-75
2023/01/20 04:56:33;;;;;;;22.30;13.38;;;;;;;;;;5064463;28;20697;-74
2023/01/20 04:59:00;;;;;;;20.40;12.47;;;;;;;;;;5053037;28;20219;-75
2023/01/20 05:01:26;;;;;;;23.73;10.23;;;;;;;;;;5038447;28;20426;-75
2023/01/20 05:03:52;;;;;;;18.40;11.70;;;;;;;;;;5048273;28;20284;-75
2023/01/20 05:06:18;;;;;;;20.43;12.90;;;;;;;;;;5055238;28;20203;-76
2023/01/20 05:08:44;;;;;;;21.80;13.40;;;;;;;;;;5059454;28;20432;-75
2023/01/20 05:11:10;;;;;;;22.40;13.23;;;;;;;;;;5054147;28;20447;-75
2023/01/20 05:13:38;;;;;;;27.60;12.83;;;;;;;;;;5043277;28;20199;-76
2023/01/20 05:16:07;;;;;;;22.75;12.88;;;;;;;;;;5046378;28;20453;-75
2023/01/20 05:18:33;;;;;;;26.52;15.40;;;;;;;;;;5051133;28;20203;-75
2023/01/20 05:20:59;;;;;;;22.45;12.52;;;;;;;;;;5059282;28;20187;-76
2023/01/20 05:23:25;;;;;;;23.33;13.97;;;;;;;;;;5058653;28;20282;-76
2023/01/20 05:25:52;;;;;;;24.13;14.95;;;;;;;;;;5060934;28;20560;-76
2023/01/20 05:28:18;;;;;;;21.20;12.75;;;;;;;;;;5058662;28;20202;-77
2023/01/20 05:30:44;;;;;;;24.43;13.83;;;;;;;;;;5052496;28;20733;-75
2023/01/20 05:33:10;;;;;;;20.25;13.85;;;;;;;;;;5056098;28;20443;-74
2023/01/20 05:35:40;;;;;;;25.20;15.70;;;;;;;;;;5056505;28;20906;-75
2023/01/20 05:38:06;;;;;;;27.55;14.13;;;;;;;;;;5056132;28;20437;-75
2023/01/20 05:40:32;;;;;;;25.25;13.55;;;;;;;;;;5058768;28;20186;-75
2023/01/20 05:43:01;;;;;;;19.50;12.23;;;;;;;;;;5044371;28;20194;-75
2023/01/20 05:45:28;;;;;;;21.75;13.15;;;;;;;;;;5045386;28;20234;-77
2023/01/20 05:47:55;;;;;;;25.73;11.57;;;;;;;;;;5054084;28;20190;-75
2023/01/20 05:50:21;;;;;;;24.33;12.50;;;;;;;;;;5049010;28;20270;-76
2023/01/20 05:52:47;;;;;;;24.73;12.43;;;;;;;;;;5055222;28;20187;-75
2023/01/20 05:55:13;;;;;;;30.70;15.00;;;;;;;;;;5046535;28;20191;-75
2023/01/20 05:57:39;;;;;;;29.52;15.73;;;;;;;;;;5056951;28;20478;-75
2023/01/20 06:00:05;;;;;;;52.23;16.50;;;;;;;;;;5049009;28;20277;-75
2023/01/20 06:02:31;;;;;;;26.08;15.35;;;;;;;;;;5052540;28;20444;-77
2023/01/20 06:05:00;;;;;;;30.92;15.77;;;;;;;;;;5056568;28;20218;-76
2023/01/20 06:07:27;;;;;;;22.65;13.85;;;;;;;;;;5052356;28;20194;-77
2023/01/20 06:09:53;;;;;;;23.98;13.77;;;;;;;;;;5042249;28;20199;-75
2023/01/20 06:12:19;;;;;;;23.77;13.38;;;;;;;;;;5053521;28;20230;-75
2023/01/20 06:14:45;;;;;;;29.05;16.55;;;;;;;;;;5044895;28;20196;-76
2023/01/20 06:17:11;;;;;;;33.13;17.40;;;;;;;;;;5064142;28;20278;-75
2023/01/20 06:19:37;;;;;;;34.90;17.77;;;;;;;;;;5044066;28;20453;-76
2023/01/20 06:22:04;;;;;;;29.42;16.73;;;;;;;;;;5052781;28;20460;-76
2023/01/20 06:24:30;;;;;;;27.48;15.98;;;;;;;;;;5040149;28;20198;-75
2023/01/20 06:26:56;;;;;;;27.58;18.02;;;;;;;;;;5051722;28;20965;-75
2023/01/20 06:29:22;;;;;;;38.40;17.87;;;;;;;;;;5052861;28;20291;-76
2023/01/20 06:31:48;;;;;;;27.85;16.67;;;;;;;;;;5052234;28;20400;-76
2023/01/20 06:34:14;;;;;;;28.70;13.63;;;;;;;;;;5028375;28;20344;-76
2023/01/20 06:36:40;;;;;;;30.70;15.57;;;;;;;;;;5053286;28;20440;-75
2023/01/20 06:39:06;;;;;;;31.02;16.55;;;;;;;;;;5050703;28;20655;-77
2023/01/20 06:41:32;;;;;;;30.95;17.38;;;;;;;;;;5036566;28;20732;-76
2023/01/20 06:43:58;;;;;;;36.42;18.35;;;;;;;;;;5050486;28;20211;-76
2023/01/20 06:46:24;;;;;;;32.70;16.67;;;;;;;;;;5050510;28;20221;-76
2023/01/20 06:48:50;;;;;;;39.17;20.10;;;;;;;;;;5063753;28;20465;-76
2023/01/20 06:51:18;;;;;;;23.92;13.63;;;;;;;;;;5047226;28;20504;-75
2023/01/20 06:53:44;;;;;;;28.52;15.82;;;;;;;;;;5052439;28;20179;-75
2023/01/20 06:56:11;;;;;;;29.00;16.55;;;;;;;;;;5041163;28;20230;-76
2023/01/20 06:58:37;;;;;;;32.30;17.05;;;;;;;;;;5044394;28;20220;-76
2023/01/20 07:01:07;;;;;;;30.02;15.63;;;;;;;;;;5047071;28;20647;-75
2023/01/20 07:03:33;;;;;;;25.98;17.15;;;;;;;;;;5059466;28;20186;-76
2023/01/20 07:06:00;;;;;;;26.33;14.63;;;;;;;;;;5049489;28;20206;-77
2023/01/20 07:08:26;;;;;;;29.15;18.25;;;;;;;;;;5045072;28;20194;-76
2023/01/20 07:10:52;;;;;;;25.80;15.85;;;;;;;;;;5043158;28;20214;-78
2023/01/20 07:13:18;;;;;;;33.47;15.13;;;;;;;;;;5005151;28;20203;-74
2023/01/20 07:15:45;;;;;;;27.53;14.80;;;;;;;;;;5036083;28;20195;-76
2023/01/20 07:18:11;;;;;;;24.58;14.77;;;;;;;;;;5035266;28;20518;-76
2023/01/20 07:20:42;;;;;;;21.83;14.10;;;;;;;;;;5036575;28;20188;-75
2023/01/20 07:23:08;;;;;;;22.55;14.60;;;;;;;;;;5031075;28;20204;-78
2023/01/20 07:25:36;;;;;;;15.23;11.53;;;;;;;;;;5041355;28;20294;-76
2023/01/20 07:28:03;;;;;;;14.48;9.82;;;;;;;;;;5036284;28;20521;-76
2023/01/20 07:30:29;;;;;;;18.35;13.32;;;;;;;;;;5044482;28;20396;-75
2023/01/20 07:32:55;;;;;;;17.13;11.70;;;;;;;;;;5028109;28;20191;-76
2023/01/20 07:35:21;;;;;;;25.63;13.45;;;;;;;;;;5041709;28;20435;-76
2023/01/20 07:37:47;;;;;;;17.95;11.40;;;;;;;;;;5010811;28;20434;-76
2023/01/20 07:40:13;;;;;;;17.70;12.82;;;;;;;;;;5026233;28;20194;-77
2023/01/20 07:42:39;;;;;;;17.20;11.10;;;;;;;;;;5028920;28;20945;-77
2023/01/20 07:45:05;;;;;;;15.10;12.10;;;;;;;;;;5048172;28;20187;-77
2023/01/20 07:47:31;;;;;;;18.75;13.35;;;;;;;;;;5045151;28;20579;-76
2023/01/20 07:49:57;;;;;;;18.67;12.13;;;;;;;;;;5048390;28;20278;-77
2023/01/20 07:52:23;;;;;;;22.30;11.63;;;;;;;;;;5047925;28;20662;-76
2023/01/20 07:54:49;;;;;;;16.67;12.43;;;;;;;;;;5047988;28;20521;-78
2023/01/20 07:57:15;;;;;;;17.85;13.02;;;;;;;;;;5040304;28;20195;-76
2023/01/20 07:59:41;;;;;;;19.07;12.97;;;;;;;;;;5040091;28;20563;-76
2023/01/20 08:02:08;;;;;;;18.47;13.37;;;;;;;;;;5050007;28;20444;-76
2023/01/20 08:04:34;;;;;;;22.27;13.07;;;;;;;;;;5043237;28;20603;-77
2023/01/20 08:07:00;;;;;;;15.30;10.82;;;;;;;;;;5038296;28;20298;-77
2023/01/20 08:09:26;;;;;;;21.97;13.13;;;;;;;;;;5039386;28;20266;-75
2023/01/20 08:11:52;;;;;;;19.63;13.88;;;;;;;;;;5043567;28;20541;-76
2023/01/20 08:14:18;;;;;;;22.52;13.02;;;;;;;;;;5043513;28;20187;-76
2023/01/20 08:16:45;;;;;;;19.60;13.30;;;;;;;;;;5038819;28;20686;-74
2023/01/20 08:19:11;;;;;;;19.08;11.85;;;;;;;;;;5028287;28;20171;-76
2023/01/20 08:21:37;;;;;;;22.95;15.27;;;;;;;;;;5033862;28;20274;-77
2023/01/20 08:24:05;;;;;;;19.10;14.20;;;;;;;;;;5046857;28;20619;-75
2023/01/20 08:26:31;;;;;;;23.38;14.05;;;;;;;;;;5043493;28;20211;-77
2023/01/20 08:29:02;;;;;;;23.40;15.43;;;;;;;;;;5049365;28;20246;-76
2023/01/20 08:31:28;;;;;;;21.77;13.52;;;;;;;;;;5042842;28;20187;-76
2023/01/20 08:33:55;;;;;;;21.50;13.75;;;;;;;;;;5035426;28;20231;-75
2023/01/20 08:36:22;;;;;;;23.90;14.15;;;;;;;;;;5035126;28;20278;-75
2023/01/20 08:38:48;;;;;;;29.15;15.82;;;;;;;;;;5045043;28;20222;-76
2023/01/20 08:41:16;;;;;;;21.58;15.30;;;;;;;;;;5052530;28;20238;-76
2023/01/20 08:43:42;;;;;;;21.17;13.80;;;;;;;;;;5018601;28;20770;-75
2023/01/20 08:46:10;;;;;;;22.97;14.27;;;;;;;;;;5045297;28;20297;-75
2023/01/20 08:48:36;;;;;;;23.73;13.75;;;;;;;;;;5044520;28;20706;-76
2023/01/20 08:51:03;;;;;;;8.98;6.03;;;;;;;;;;5040237;28;20585;-75
2023/01/20 08:53:29;;;;;;;17.90;12.00;;;;;;;;;;5038800;28;20313;-76
2023/01/20 08:55:56;;;;;;;17.60;12.00;;;;;;;;;;5040903;28;20241;-76
2023/01/20 08:58:22;;;;;;;19.77;12.90;;;;;;;;;;5044602;28;20572;-75
2023/01/20 09:00:48;;;;;;;25.55;15.55;;;;;;;;;;5044318;28;20223;-77
2023/01/20 09:03:14;;;;;;;20.45;14.63;;;;;;;;;;5046198;28;20191;-76
2023/01/20 09:05:40;;;;;;;18.37;13.87;;;;;;;;;;5042746;28;20217;-75
2023/01/20 09:08:06;;;;;;;22.27;14.80;;;;;;;;;;5034670;28;20442;-76
2023/01/20 09:10:33;;;;;;;21.77;12.40;;;;;;;;;;5029177;28;20662;-76
2023/01/20 09:12:59;;;;;;;22.60;13.20;;;;;;;;;;5060371;28;20174;-74
2023/01/20 09:15:25;;;;;;;23.93;15.43;;;;;;;;;;5051527;28;20575;-76
2023/01/20 09:17:51;;;;;;;14.50;10.02;;;;;;;;;;5059055;28;20455;-75
2023/01/20 09:20:17;;;;;;;25.20;15.90;;;;;;;;;;5052018;28;20728;-76
2023/01/20 09:22:43;;;;;;;19.33;11.73;;;;;;;;;;5060440;28;20444;-76
2023/01/20 09:25:10;;;;;;;22.23;11.30;;;;;;;;;;5062922;28;20254;-75
2023/01/20 09:27:36;;;;;;;21.05;13.05;;;;;;;;;;5061791;28;20187;-77
2023/01/20 09:30:02;;;;;;;20.92;14.70;;;;;;;;;;5047681;28;20195;-76
2023/01/20 09:32:28;;;;;;;19.27;12.40;;;;;;;;;;5054282;28;20685;-77
2023/01/20 09:34:55;;;;;;;21.57;13.53;;;;;;;;;;5066781;28;20201;-76
2023/01/20 09:46:21;;;;;;;19.33;14.00;;;;;;;;;;5054142;28;20741;-76
2023/01/20 09:54:26;;;;;;;14.25;10.00;;;;;;;;;;5058361;28;20203;-77
2023/01/20 09:56:53;;;;;;;15.32;10.57;;;;;;;;;;5060639;28;20197;-77
2023/01/20 09:59:23;;;;;;;20.42;13.43;;;;;;;;;;5057969;28;20331;-76
2023/01/20 10:01:52;;;;;;;20.98;14.48;;;;;;;;;;5057999;28;20268;-75
2023/01/20 10:04:28;;;;;;;17.50;12.70;;;;;;;;;;5056451;28;20194;-77
2023/01/20 10:07:03;;;;;;;21.48;14.88;;;;;;;;;;5059219;28;20487;-77
2023/01/20 10:09:37;;;;;;;27.33;15.05;;;;;;;;;;5036336;28;20602;-76
2023/01/20 10:12:23;;;;;;;16.33;11.60;;;;;;;;;;5062513;28;20385;-77
2023/01/20 10:14:58;;;;;;;15.57;12.50;;;;;;;;;;5051113;28;20308;-76
2023/01/20 10:17:26;;;;;;;17.70;11.45;;;;;;;;;;5055014;28;20178;-75
2023/01/20 10:20:16;;;;;;;18.13;13.35;;;;;;;;;;5061002;28;20960;-75
2023/01/20 10:22:45;;;;;;;18.42;13.60;;;;;;;;;;5042019;28;20207;-75
2023/01/20 10:25:22;;;;;;;24.05;13.15;;;;;;;;;;5065310;28;20257;-75
2023/01/20 10:27:51;;;;;;;20.10;13.10;;;;;;;;;;5059138;28;20286;-76
2023/01/20 10:30:18;;;;;;;19.25;9.73;;;;;;;;;;5064668;28;20262;-76
2023/01/20 10:33:07;;;;;;;20.02;12.93;;;;;;;;;;5064589;28;20555;-75
2023/01/20 10:35:37;;;;;;;16.73;11.75;;;;;;;;;;5054143;28;20195;-76
2023/01/20 10:38:06;;;;;;;19.10;12.90;;;;;;;;;;5059680;28;20553;-75
2023/01/20 10:40:41;;;;;;;17.48;12.50;;;;;;;;;;5064761;28;20667;-75
2023/01/20 10:43:11;;;;;;;14.23;11.48;;;;;;;;;;5059104;28;20242;-76
2023/01/20 10:45:37;;;;;;;18.35;12.65;;;;;;;;;;5067626;28;20203;-76
2023/01/20 10:48:21;;;;;;;15.43;9.90;;;;;;;;;;5057219;28;20193;-76
2023/01/20 10:51:11;;;;;;;14.75;11.93;;;;;;;;;;5061927;28;20738;-78
2023/01/20 10:53:47;;;;;;;14.98;10.63;;;;;;;;;;5027515;28;20548;-77
2023/01/20 10:56:16;;;;;;;15.70;11.55;;;;;;;;;;5056930;28;20240;-76
2023/01/20 10:58:44;;;;;;;12.50;10.98;;;;;;;;;;5049338;28;20708;-76
2023/01/20 11:01:12;;;;;;;9.95;8.40;;;;;;;;;;5062424;28;20198;-78
2023/01/20 11:03:43;;;;;;;10.10;9.02;;;;;;;;;;5059680;28;20259;-77
2023/01/20 11:06:18;;;;;;;7.03;6.35;;;;;;;;;;5062348;28;20408;-74
2023/01/20 11:08:44;;;;;;;9.65;8.65;;;;;;;;;;5051761;28;20353;-77
2023/01/20 11:11:11;;;;;;;9.80;7.90;;;;;;;;;;5053597;28;20785;-76
2023/01/20 11:13:37;;;;;;;9.10;8.20;;;;;;;;;;5041637;28;20844;-78
2023/01/20 11:16:10;;;;;;;7.55;6.95;;;;;;;;;;5062211;28;20441;-76
2023/01/20 11:18:36;;;;;;;7.70;6.97;;;;;;;;;;5057223;28;20199;-76
2023/01/20 11:21:04;;;;;;;9.88;7.20;;;;;;;;;;5064776;28;20186;-76
2023/01/20 11:23:54;;;;;;;8.05;7.20;;;;;;;;;;5045762;28;20664;-76
2023/01/20 11:26:27;;;;;;;6.45;5.80;;;;;;;;;;5059358;28;20234;-76
2023/01/20 11:28:57;;;;;;;12.20;7.57;;;;;;;;;;5058701;28;20202;-76
2023/01/20 11:31:46;;;;;;;10.50;6.00;;;;;;;;;;5064652;28;20195;-76
2023/01/20 11:34:31;;;;;;;10.70;7.80;;;;;;;;;;5042204;28;20500;-74
2023/01/20 11:37:06;;;;;;;13.55;8.23;;;;;;;;;;5062301;28;20206;-74
2023/01/20 11:39:34;;;;;;;8.75;7.05;;;;;;;;;;5059917;28;20199;-76
2023/01/20 11:42:10;;;;;;;7.75;7.00;;;;;;;;;;5070236;28;20455;-74
2023/01/20 11:44:42;;;;;;;7.05;6.35;;;;;;;;;;5058965;28;20285;-74
2023/01/20 11:47:25;;;;;;;9.00;5.93;;;;;;;;;;5058779;28;20202;-77
2023/01/20 11:50:11;;;;;;;8.38;6.50;;;;;;;;;;5055309;28;20295;-75
2023/01/20 11:52:38;;;;;;;9.60;8.05;;;;;;;;;;5046939;28;20201;-75
2023/01/20 11:55:20;;;;;;;7.22;6.40;;;;;;;;;;5061314;28;20551;-74
2023/01/20 11:57:46;;;;;;;8.20;7.32;;;;;;;;;;5056349;28;20205;-76
2023/01/20 12:00:18;;;;;;;7.40;6.70;;;;;;;;;;5058708;28;20180;-74
2023/01/20 12:02:44;;;;;;;6.73;5.80;;;;;;;;;;5057530;28;20545;-74
2023/01/20 12:05:24;;;;;;;7.77;6.97;;;;;;;;;;5063819;28;20402;-74
2023/01/20 12:07:51;;;;;;;8.82;7.68;;;;;;;;;;5053662;28;20853;-75
2023/01/20 12:10:27;;;;;;;8.68;7.75;;;;;;;;;;5055038;28;20527;-75
2023/01/20 12:13:02;;;;;;;8.93;8.00;;;;;;;;;;5055563;28;20321;-75
2023/01/20 12:15:32;;;;;;;9.20;8.25;;;;;;;;;;5052458;28;20422;-74
2023/01/20 12:17:58;;;;;;;8.77;7.05;;;;;;;;;;5058713;28;20679;-76
2023/01/20 12:20:42;;;;;;;8.35;7.22;;;;;;;;;;5063479;28;20528;-76
2023/01/20 12:23:22;;;;;;;15.30;7.78;;;;;;;;;;5058736;28;20232;-76
2023/01/20 12:25:51;;;;;;;9.48;7.40;;;;;;;;;;5063581;28;20190;-76
2023/01/20 12:28:36;;;;;;;12.75;8.07;;;;;;;;;;5056190;28;20199;-75
2023/01/20 12:31:04;;;;;;;10.75;7.93;;;;;;;;;;5070690;28;20194;-74
2023/01/20 12:33:31;;;;;;;10.13;8.75;;;;;;;;;;5055044;28;20237;-76
2023/01/20 12:36:15;;;;;;;8.70;7.53;;;;;;;;;;5064528;28;20183;-77
2023/01/20 12:39:01;;;;;;;11.05;7.97;;;;;;;;;;5051350;28;20609;-76
2023/01/20 12:41:36;;;;;;;7.50;6.80;;;;;;;;;;5028922;28;20198;-75
2023/01/20 12:44:21;;;;;;;10.05;7.25;;;;;;;;;;5056506;28;20194;-78
2023/01/20 12:47:03;;;;;;;10.45;8.55;;;;;;;;;;5067828;28;20264;-78
2023/01/20 12:49:55;;;;;;;11.23;9.07;;;;;;;;;;5053842;28;20194;-77
2023/01/20 12:52:22;;;;;;;10.00;8.40;;;;;;;;;;5052491;28;20186;-78
2023/01/20 12:55:07;;;;;;;9.20;8.13;;;;;;;;;;5066985;28;20416;-76
2023/01/20 12:57:42;;;;;;;7.47;6.75;;;;;;;;;;5060775;28;20286;-75
2023/01/20 13:00:08;;;;;;;8.25;7.43;;;;;;;;;;5066726;28;20827;-76
2023/01/20 13:02:53;;;;;;;9.77;7.73;;;;;;;;;;5055641;28;20222;-77
2023/01/20 13:05:19;;;;;;;9.52;7.78;;;;;;;;;;5059963;28;20420;-77
2023/01/20 13:07:51;;;;;;;9.10;8.20;;;;;;;;;;5063941;28;20213;-75
2023/01/20 13:10:36;;;;;;;18.25;8.82;;;;;;;;;;5058450;28;20806;-78
2023/01/20 13:13:04;;;;;;;8.67;7.57;;;;;;;;;;5057690;28;20246;-75
2023/01/20 13:15:36;;;;;;;7.97;7.27;;;;;;;;;;5063824;28;20413;-74
2023/01/20 13:18:11;;;;;;;13.97;8.67;;;;;;;;;;5055644;28;20446;-76
2023/01/20 13:20:41;;;;;;;7.50;6.90;;;;;;;;;;5055639;28;20420;-76
2023/01/20 13:23:10;;;;;;;8.67;7.90;;;;;;;;;;5055123;28;20571;-76
2023/01/20 13:25:38;;;;;;;8.60;7.82;;;;;;;;;;5065196;28;20514;-75
2023/01/20 13:28:06;;;;;;;8.93;8.13;;;;;;;;;;5055281;28;20198;-76
2023/01/20 13:30:38;;;;;;;9.48;8.55;;;;;;;;;;5057249;28;20266;-76
2023/01/20 13:33:05;;;;;;;6.93;6.32;;;;;;;;;;5050570;28;20581;-76
2023/01/20 13:35:32;;;;;;;8.07;7.25;;;;;;;;;;5059503;28;20177;-76
2023/01/20 13:38:00;;;;;;;8.27;7.63;;;;;;;;;;5048776;28;20218;-76
2023/01/20 13:40:32;;;;;;;8.77;8.00;;;;;;;;;;5057852;28;20430;-76
2023/01/20 13:42:58;;;;;;;9.33;8.43;;;;;;;;;;5059184;28;20459;-77
2023/01/20 13:45:26;;;;;;;9.17;8.27;;;;;;;;;;5059685;28;20916;-74
2023/01/20 13:47:58;;;;;;;7.88;7.13;;;;;;;;;;5051487;28;20972;-77
2023/01/20 13:50:25;;;;;;;7.03;6.17;;;;;;;;;;5053510;28;20669;-76
2023/01/20 13:52:51;;;;;;;8.00;7.30;;;;;;;;;;5052052;28;20422;-77
2023/01/20 13:55:49;;;;;;;9.80;8.17;;;;;;;;;;5062129;28;20609;-78
2023/01/20 13:58:18;;;;;;;8.17;7.50;;;;;;;;;;5062724;28;20455;-76
2023/01/20 14:00:45;;;;;;;8.77;8.07;;;;;;;;;;5058141;28;20429;-75
2023/01/20 14:03:22;;;;;;;7.90;6.90;;;;;;;;;;5053600;28;20448;-75
2023/01/20 14:05:55;;;;;;;7.22;6.53;;;;;;;;;;5064219;28;20198;-77
2023/01/20 14:08:22;;;;;;;10.13;9.10;;;;;;;;;;5055698;28;20199;-76
2023/01/20 14:10:48;;;;;;;9.50;8.57;;;;;;;;;;5059195;28;20449;-77
2023/01/20 14:13:21;;;;;;;10.53;9.47;;;;;;;;;;5041963;28;21101;-76
2023/01/20 14:15:49;;;;;;;7.85;6.63;;;;;;;;;;5056128;28;20994;-76
2023/01/20 14:18:24;;;;;;;14.50;8.83;;;;;;;;;;5041482;28;20577;-76
2023/01/20 14:20:59;;;;;;;7.90;7.20;;;;;;;;;;5064645;28;20412;-78
2023/01/20 14:23:25;;;;;;;9.00;6.87;;;;;;;;;;5055695;28;20531;-75
2023/01/20 14:26:17;;;;;;;8.18;7.55;;;;;;;;;;5060395;28;20559;-78
2023/01/20 14:28:45;;;;;;;8.13;7.35;;;;;;;;;;5029752;28;20285;-76
2023/01/20 14:31:11;;;;;;;8.60;7.90;;;;;;;;;;5063874;28;20182;-76
2023/01/20 14:33:43;;;;;;;9.73;7.57;;;;;;;;;;5048141;28;20449;-76
2023/01/20 14:36:13;;;;;;;10.53;9.03;;;;;;;;;;5062400;28;20891;-76
2023/01/20 14:38:40;;;;;;;9.37;7.90;;;;;;;;;;5058172;28;20857;-76
2023/01/20 14:41:21;;;;;;;10.68;8.60;;;;;;;;;;5042607;28;20429;-77
2023/01/20 14:43:47;;;;;;;7.55;5.78;;;;;;;;;;5056095;28;20186;-75
2023/01/20 14:46:13;;;;;;;8.57;6.70;;;;;;;;;;5062794;28;20327;-76
2023/01/20 14:48:41;;;;;;;8.27;7.40;;;;;;;;;;5064190;28;20451;-76
2023/01/20 14:51:07;;;;;;;9.13;8.03;;;;;;;;;;5063935;28;20428;-76